FR-0245 weather

Tête De Solaise Heliport
Val D'Isere, Rhône Alpes, France

Public forecast

Using degrees Celsius for public forecast. Weather courtesy of forecast.io.

METAR (pilot weather report)

Closest report is Aosta Airport, 24.2 nm (44.9 km) NE. Retrieved 2019/09/21 07:20 UTC (26 minutes ago):

LIMW 210720Z AUTO 09005KT 9999 OVC037 15/10 Q1025

TAF (pilot weather forecast)

Closest forecast is Turin Airport, 31.1 nm (57.6 km) ESE. Retrieved 2019/09/21 06:00 UTC (2 hours ago):

TAF LIMF 210500Z 2106/2206 02005KT 9999 BKN050 BECMG 2122/2201 RA